MSR75 HEGN-OERK
Flight info
| Callsign | MSR75 |
|---|---|
| Flight time | 1h 31m |
| Altitude | 33000 |
| Route | IMLUX1B IMLUX DCT NETOL DCT HLF DCT IMROV DCT ORMAD DCT ROSUL DCT KINOB DCT MIRAS DCT IVONU DCT |
| Aircraft | A332/H-SDE3GHIJ2J3J5M1RVWXY/LB2D1 |
Departure
| Time | 2026-05-05 18:18 |
|---|---|
| Airport | Hurghada International Airport (HEGN) |
Arrival
| Time | 2026-05-05 19:49 |
|---|---|
| Airport | King Khalid International Airport (OERK) |
| Time | Latitude | Longitude | Altitude | Speed | Heading |
|---|---|---|---|---|---|
| 2026-05-05 18:13 | 27.17564 | 33.80724 | 33 ft | 0 kts | 76° |
| 2026-05-05 18:16 | 27.17552 | 33.80671 | 39 ft | 0 kts | 254° |
| 2026-05-05 18:16 | 27.15940 | 33.79820 | 33 ft | 0 kts | 255° |
| 2026-05-05 18:17 | 27.15936 | 33.79804 | 33 ft | 6 kts | 255° |
| 2026-05-05 18:17 | 27.15924 | 33.79721 | 33 ft | 15 kts | 279° |
| 2026-05-05 18:18 | 27.16023 | 33.79647 | 34 ft | 21 kts | 343° |
| 2026-05-05 18:18 | 27.16348 | 33.79553 | 34 ft | 89 kts | 346° |
| 2026-05-05 18:18 | 27.17232 | 33.79311 | 104 ft | 168 kts | 347° |
| 2026-05-05 18:18 | 27.18479 | 33.78980 | 1003 ft | 195 kts | 348° |
| 2026-05-05 18:19 | 27.19840 | 33.78617 | 2361 ft | 211 kts | 346° |
| 2026-05-05 18:19 | 27.21317 | 33.78223 | 3066 ft | 229 kts | 345° |
| 2026-05-05 18:19 | 27.22926 | 33.77795 | 3768 ft | 242 kts | 344° |
| 2026-05-05 18:19 | 27.24574 | 33.77355 | 4740 ft | 247 kts | 341° |
| 2026-05-05 18:20 | 27.26274 | 33.76899 | 5591 ft | 253 kts | 341° |
| 2026-05-05 18:20 | 27.27412 | 33.76593 | 6256 ft | 254 kts | 342° |
| 2026-05-05 18:20 | 27.29724 | 33.75974 | 7540 ft | 258 kts | 341° |
| 2026-05-05 18:20 | 27.31474 | 33.75522 | 8440 ft | 265 kts | 345° |
| 2026-05-05 18:21 | 27.33352 | 33.75443 | 9363 ft | 279 kts | 2° |
| 2026-05-05 18:21 | 27.35212 | 33.76223 | 10232 ft | 296 kts | 28° |
| 2026-05-05 18:21 | 27.36824 | 33.77742 | 11041 ft | 307 kts | 39° |
| 2026-05-05 18:21 | 27.38351 | 33.79466 | 11797 ft | 317 kts | 41° |
| 2026-05-05 18:22 | 27.39954 | 33.81300 | 12149 ft | 340 kts | 41° |
| 2026-05-05 18:22 | 27.41682 | 33.83262 | 12507 ft | 361 kts | 41° |
| 2026-05-05 18:22 | 27.43482 | 33.85295 | 13160 ft | 372 kts | 41° |
| 2026-05-05 18:22 | 27.45331 | 33.87378 | 13890 ft | 379 kts | 41° |
| 2026-05-05 18:23 | 27.46505 | 33.88851 | 14332 ft | 386 kts | 49° |
| 2026-05-05 18:23 | 27.47843 | 33.91516 | 15049 ft | 396 kts | 64° |
| 2026-05-05 18:23 | 27.48867 | 33.94429 | 15715 ft | 404 kts | 67° |
| 2026-05-05 18:23 | 27.49844 | 33.97414 | 16403 ft | 409 kts | 68° |
| 2026-05-05 18:24 | 27.50834 | 34.00443 | 17121 ft | 414 kts | 67° |
| 2026-05-05 18:24 | 27.51823 | 34.03509 | 17817 ft | 420 kts | 71° |
| 2026-05-05 18:24 | 27.52276 | 34.06798 | 18447 ft | 428 kts | 91° |
| 2026-05-05 18:24 | 27.52041 | 34.10109 | 19039 ft | 432 kts | 98° |
| 2026-05-05 18:25 | 27.51575 | 34.13466 | 19643 ft | 435 kts | 101° |
| 2026-05-05 18:25 | 27.51192 | 34.15736 | 20057 ft | 438 kts | 102° |
| 2026-05-05 18:25 | 27.50386 | 34.20219 | 20859 ft | 443 kts | 103° |
| 2026-05-05 18:25 | 27.49776 | 34.23639 | 21452 ft | 447 kts | 103° |
| 2026-05-05 18:26 | 27.49181 | 34.27091 | 22040 ft | 451 kts | 102° |
| 2026-05-05 18:26 | 27.48602 | 34.30578 | 22620 ft | 455 kts | 102° |
| 2026-05-05 18:26 | 27.48032 | 34.34099 | 23188 ft | 459 kts | 102° |
| 2026-05-05 18:26 | 27.47464 | 34.37661 | 23707 ft | 463 kts | 102° |
| 2026-05-05 18:27 | 27.46896 | 34.41244 | 24166 ft | 467 kts | 102° |
| 2026-05-05 18:27 | 27.46322 | 34.44865 | 24629 ft | 470 kts | 102° |
| 2026-05-05 18:27 | 27.45745 | 34.48502 | 25083 ft | 474 kts | 102° |
| 2026-05-05 18:27 | 27.45159 | 34.52172 | 25530 ft | 477 kts | 102° |
| 2026-05-05 18:28 | 27.43981 | 34.59530 | 26361 ft | 485 kts | 103° |
| 2026-05-05 18:28 | 27.43375 | 34.63294 | 26756 ft | 489 kts | 103° |
| 2026-05-05 18:28 | 27.42775 | 34.67077 | 27252 ft | 491 kts | 102° |
| 2026-05-05 18:29 | 27.42189 | 34.70875 | 27706 ft | 494 kts | 102° |
| 2026-05-05 18:29 | 27.41606 | 34.74700 | 28133 ft | 497 kts | 102° |
| 2026-05-05 18:29 | 27.41029 | 34.78501 | 28594 ft | 499 kts | 103° |
| 2026-05-05 18:29 | 27.40441 | 34.82371 | 29017 ft | 502 kts | 103° |
| 2026-05-05 18:30 | 27.39847 | 34.86265 | 29440 ft | 506 kts | 103° |
| 2026-05-05 18:30 | 27.39245 | 34.90186 | 29845 ft | 509 kts | 103° |
| 2026-05-05 18:30 | 27.38638 | 34.94129 | 30210 ft | 512 kts | 103° |
| 2026-05-05 18:30 | 27.38026 | 34.98094 | 30553 ft | 515 kts | 103° |
| 2026-05-05 18:31 | 27.37418 | 35.02024 | 30896 ft | 517 kts | 103° |
| 2026-05-05 18:31 | 27.36797 | 35.06027 | 31262 ft | 520 kts | 103° |
| 2026-05-05 18:31 | 27.36171 | 35.10056 | 31523 ft | 525 kts | 103° |
| 2026-05-05 18:31 | 27.35535 | 35.14131 | 31676 ft | 532 kts | 103° |
| 2026-05-05 18:32 | 27.34890 | 35.18259 | 31822 ft | 540 kts | 103° |
| 2026-05-05 18:32 | 27.34235 | 35.22440 | 31994 ft | 546 kts | 103° |
| 2026-05-05 18:32 | 27.33576 | 35.26654 | 32290 ft | 548 kts | 104° |
| 2026-05-05 18:32 | 27.32913 | 35.30888 | 32656 ft | 549 kts | 104° |
| 2026-05-05 18:33 | 27.32249 | 35.35122 | 32933 ft | 551 kts | 104° |
| 2026-05-05 18:33 | 27.31582 | 35.39366 | 32962 ft | 550 kts | 104° |
| 2026-05-05 18:33 | 27.30244 | 35.47848 | 32960 ft | 550 kts | 104° |
| 2026-05-05 18:34 | 27.28900 | 35.56322 | 32953 ft | 551 kts | 104° |
| 2026-05-05 18:34 | 27.27550 | 35.64793 | 32955 ft | 551 kts | 104° |
| 2026-05-05 18:35 | 27.26202 | 35.73225 | 32954 ft | 551 kts | 104° |
| 2026-05-05 18:35 | 27.24841 | 35.81698 | 32952 ft | 551 kts | 104° |
| 2026-05-05 18:36 | 27.23473 | 35.90182 | 32949 ft | 551 kts | 104° |
| 2026-05-05 18:36 | 27.22101 | 35.98661 | 32943 ft | 551 kts | 104° |
| 2026-05-05 18:37 | 27.20724 | 36.07141 | 32943 ft | 551 kts | 104° |
| 2026-05-05 18:37 | 27.19349 | 36.15566 | 32941 ft | 552 kts | 104° |
| 2026-05-05 18:38 | 27.17961 | 36.24037 | 32948 ft | 551 kts | 104° |
| 2026-05-05 18:38 | 27.16569 | 36.32504 | 32941 ft | 551 kts | 104° |
| 2026-05-05 18:39 | 27.15168 | 36.40991 | 32941 ft | 552 kts | 104° |
| 2026-05-05 18:39 | 27.13770 | 36.49428 | 32939 ft | 552 kts | 104° |
| 2026-05-05 18:40 | 27.11936 | 36.57753 | 32946 ft | 547 kts | 111° |
| 2026-05-05 18:40 | 27.09762 | 36.65924 | 32950 ft | 546 kts | 112° |
| 2026-05-05 18:41 | 27.07513 | 36.74069 | 32952 ft | 546 kts | 112° |
| 2026-05-05 18:41 | 27.05256 | 36.82195 | 32954 ft | 546 kts | 112° |
| 2026-05-05 18:42 | 27.03012 | 36.90276 | 32954 ft | 545 kts | 112° |
| 2026-05-05 18:42 | 27.00753 | 36.98404 | 32959 ft | 545 kts | 112° |
| 2026-05-05 18:43 | 26.98492 | 37.06530 | 32967 ft | 545 kts | 112° |
| 2026-05-05 18:43 | 26.96236 | 37.14649 | 32966 ft | 545 kts | 112° |
| 2026-05-05 18:44 | 26.93968 | 37.22756 | 32965 ft | 545 kts | 112° |
| 2026-05-05 18:44 | 26.91695 | 37.30856 | 32974 ft | 545 kts | 112° |
| 2026-05-05 18:45 | 26.89422 | 37.38944 | 32971 ft | 544 kts | 113° |
| 2026-05-05 18:45 | 26.87144 | 37.47035 | 32968 ft | 544 kts | 113° |
| 2026-05-05 18:46 | 26.84875 | 37.55067 | 32955 ft | 545 kts | 113° |
| 2026-05-05 18:46 | 26.82582 | 37.63166 | 32951 ft | 545 kts | 113° |
| 2026-05-05 18:47 | 26.80293 | 37.71237 | 32949 ft | 544 kts | 113° |
| 2026-05-05 18:47 | 26.77991 | 37.79327 | 32938 ft | 546 kts | 113° |
| 2026-05-05 18:48 | 26.75674 | 37.87438 | 32929 ft | 547 kts | 113° |
| 2026-05-05 18:48 | 26.73356 | 37.95546 | 32920 ft | 546 kts | 113° |
| 2026-05-05 18:49 | 26.71041 | 38.03640 | 32921 ft | 546 kts | 113° |
| 2026-05-05 18:49 | 26.68724 | 38.11715 | 32918 ft | 546 kts | 113° |
| 2026-05-05 18:50 | 26.66398 | 38.19795 | 32903 ft | 546 kts | 114° |
| 2026-05-05 18:50 | 26.64081 | 38.27829 | 32921 ft | 546 kts | 113° |
| 2026-05-05 18:51 | 26.61746 | 38.35902 | 32928 ft | 546 kts | 114° |
| 2026-05-05 18:51 | 26.59406 | 38.43975 | 32947 ft | 546 kts | 114° |
| 2026-05-05 18:52 | 26.57058 | 38.52050 | 32950 ft | 546 kts | 114° |
| 2026-05-05 18:52 | 26.54706 | 38.60123 | 32950 ft | 546 kts | 114° |
| 2026-05-05 18:53 | 26.52376 | 38.68202 | 32949 ft | 549 kts | 110° |
| 2026-05-05 18:53 | 26.50933 | 38.76645 | 32956 ft | 554 kts | 105° |
| 2026-05-05 18:54 | 26.49632 | 38.85142 | 32971 ft | 555 kts | 104° |
| 2026-05-05 18:54 | 26.48386 | 38.93592 | 32951 ft | 555 kts | 104° |
| 2026-05-05 18:55 | 26.47127 | 39.02116 | 32952 ft | 556 kts | 104° |
| 2026-05-05 18:55 | 26.45852 | 39.10662 | 32950 ft | 557 kts | 104° |
| 2026-05-05 18:56 | 26.44580 | 39.19123 | 32949 ft | 556 kts | 104° |
| 2026-05-05 18:56 | 26.43153 | 39.27572 | 32946 ft | 550 kts | 110° |
| 2026-05-05 18:57 | 26.41224 | 39.35847 | 32921 ft | 550 kts | 111° |
| 2026-05-05 18:57 | 26.39195 | 39.44069 | 32937 ft | 550 kts | 111° |
| 2026-05-05 18:58 | 26.37138 | 39.52285 | 32936 ft | 549 kts | 111° |
| 2026-05-05 18:58 | 26.35095 | 39.60460 | 32949 ft | 549 kts | 111° |
| 2026-05-05 18:59 | 26.33045 | 39.68675 | 32949 ft | 550 kts | 111° |
| 2026-05-05 18:59 | 26.30986 | 39.76911 | 32936 ft | 550 kts | 111° |
| 2026-05-05 19:00 | 26.28926 | 39.85139 | 32944 ft | 550 kts | 111° |
| 2026-05-05 19:00 | 26.26873 | 39.93311 | 32944 ft | 551 kts | 111° |
| 2026-05-05 19:01 | 26.24802 | 40.01535 | 32944 ft | 551 kts | 111° |
| 2026-05-05 19:01 | 26.22736 | 40.09717 | 32941 ft | 552 kts | 111° |
| 2026-05-05 19:02 | 26.20642 | 40.17982 | 32935 ft | 553 kts | 111° |
| 2026-05-05 19:02 | 26.18549 | 40.26232 | 32928 ft | 553 kts | 111° |
| 2026-05-05 19:03 | 26.16455 | 40.34454 | 32924 ft | 556 kts | 112° |
| 2026-05-05 19:03 | 26.14331 | 40.42772 | 32920 ft | 557 kts | 112° |
| 2026-05-05 19:04 | 26.12204 | 40.51081 | 32912 ft | 558 kts | 112° |
| 2026-05-05 19:04 | 26.10082 | 40.59348 | 32906 ft | 559 kts | 112° |
| 2026-05-05 19:05 | 26.07943 | 40.67671 | 32903 ft | 559 kts | 112° |
| 2026-05-05 19:05 | 26.05794 | 40.75991 | 32897 ft | 559 kts | 112° |
| 2026-05-05 19:06 | 26.03639 | 40.84309 | 32897 ft | 559 kts | 112° |
| 2026-05-05 19:06 | 26.01482 | 40.92617 | 32882 ft | 559 kts | 112° |
| 2026-05-05 19:07 | 25.99683 | 40.99526 | 32891 ft | 561 kts | 112° |
| 2026-05-05 19:07 | 25.97154 | 41.09221 | 32882 ft | 561 kts | 112° |
| 2026-05-05 19:08 | 25.94977 | 41.17546 | 32869 ft | 561 kts | 112° |
| 2026-05-05 19:08 | 25.92796 | 41.25863 | 32881 ft | 561 kts | 112° |
| 2026-05-05 19:09 | 25.90608 | 41.34188 | 32870 ft | 561 kts | 112° |
| 2026-05-05 19:09 | 25.88416 | 41.42505 | 32868 ft | 560 kts | 112° |
| 2026-05-05 19:10 | 25.86235 | 41.50762 | 32859 ft | 560 kts | 112° |
| 2026-05-05 19:10 | 25.84034 | 41.59068 | 32852 ft | 560 kts | 112° |
| 2026-05-05 19:11 | 25.81835 | 41.67353 | 32854 ft | 559 kts | 112° |
| 2026-05-05 19:11 | 25.80004 | 41.74233 | 32851 ft | 559 kts | 112° |
| 2026-05-05 19:12 | 25.77798 | 41.82503 | 32844 ft | 559 kts | 113° |
| 2026-05-05 19:12 | 25.75587 | 41.90772 | 32848 ft | 558 kts | 113° |
| 2026-05-05 19:13 | 25.73376 | 41.99032 | 32824 ft | 558 kts | 113° |
| 2026-05-05 19:13 | 25.71175 | 42.07238 | 32842 ft | 558 kts | 113° |
| 2026-05-05 19:14 | 25.68951 | 42.15508 | 32841 ft | 558 kts | 113° |
| 2026-05-05 19:14 | 25.66735 | 42.23751 | 32839 ft | 559 kts | 111° |
| 2026-05-05 19:15 | 25.65064 | 42.32239 | 32840 ft | 563 kts | 107° |
| 2026-05-05 19:15 | 25.63550 | 42.40715 | 32824 ft | 563 kts | 107° |
| 2026-05-05 19:16 | 25.62066 | 42.49258 | 32847 ft | 563 kts | 106° |
| 2026-05-05 19:16 | 25.60572 | 42.57790 | 32841 ft | 563 kts | 107° |
| 2026-05-05 19:17 | 25.59065 | 42.66305 | 32838 ft | 562 kts | 107° |
| 2026-05-05 19:17 | 25.57552 | 42.74805 | 32845 ft | 561 kts | 107° |
| 2026-05-05 19:18 | 25.56041 | 42.83253 | 32841 ft | 561 kts | 107° |
| 2026-05-05 19:18 | 25.54509 | 42.91793 | 32849 ft | 561 kts | 107° |
| 2026-05-05 19:19 | 25.52994 | 43.00220 | 32847 ft | 561 kts | 107° |
| 2026-05-05 19:19 | 25.51466 | 43.08699 | 32851 ft | 561 kts | 107° |
| 2026-05-05 19:20 | 25.49932 | 43.17181 | 32841 ft | 561 kts | 107° |
| 2026-05-05 19:20 | 25.48396 | 43.25645 | 32838 ft | 561 kts | 107° |
| 2026-05-05 19:21 | 25.46854 | 43.34116 | 32852 ft | 561 kts | 107° |
| 2026-05-05 19:21 | 25.45307 | 43.42585 | 32858 ft | 561 kts | 107° |
| 2026-05-05 19:22 | 25.43764 | 43.51001 | 32860 ft | 560 kts | 107° |
| 2026-05-05 19:22 | 25.42209 | 43.59457 | 32859 ft | 560 kts | 107° |
| 2026-05-05 19:23 | 25.40650 | 43.67905 | 32859 ft | 559 kts | 107° |
| 2026-05-05 19:23 | 25.39100 | 43.76279 | 32856 ft | 558 kts | 107° |
| 2026-05-05 19:24 | 25.37539 | 43.84681 | 32845 ft | 558 kts | 107° |
| 2026-05-05 19:24 | 25.35968 | 43.93106 | 32864 ft | 558 kts | 107° |
| 2026-05-05 19:25 | 25.34396 | 44.01513 | 32851 ft | 558 kts | 107° |
| 2026-05-05 19:25 | 25.32817 | 44.09924 | 32853 ft | 557 kts | 107° |
| 2026-05-05 19:26 | 25.31240 | 44.18305 | 32851 ft | 557 kts | 107° |
| 2026-05-05 19:26 | 25.29667 | 44.26635 | 32848 ft | 557 kts | 107° |
| 2026-05-05 19:27 | 25.28078 | 44.35016 | 32844 ft | 557 kts | 107° |
| 2026-05-05 19:27 | 25.26485 | 44.43397 | 32833 ft | 557 kts | 107° |
| 2026-05-05 19:28 | 25.24887 | 44.51779 | 32842 ft | 555 kts | 107° |
| 2026-05-05 19:28 | 25.23285 | 44.60130 | 32846 ft | 555 kts | 107° |
| 2026-05-05 19:29 | 25.21690 | 44.68406 | 32842 ft | 550 kts | 107° |
| 2026-05-05 19:29 | 25.20907 | 44.72486 | 32677 ft | 536 kts | 107° |
| 2026-05-05 19:29 | 25.20142 | 44.76473 | 32445 ft | 525 kts | 107° |
| 2026-05-05 19:30 | 25.19380 | 44.80417 | 32196 ft | 522 kts | 107° |
| 2026-05-05 19:30 | 25.18616 | 44.84338 | 31954 ft | 524 kts | 107° |
| 2026-05-05 19:30 | 25.17845 | 44.88285 | 31699 ft | 525 kts | 107° |
| 2026-05-05 19:30 | 25.17084 | 44.92176 | 31454 ft | 525 kts | 107° |
| 2026-05-05 19:31 | 25.16336 | 44.96127 | 31218 ft | 525 kts | 105° |
| 2026-05-05 19:31 | 25.15686 | 45.00091 | 30922 ft | 524 kts | 103° |
| 2026-05-05 19:31 | 25.15096 | 45.04070 | 30684 ft | 522 kts | 103° |
| 2026-05-05 19:31 | 25.14534 | 45.08021 | 30452 ft | 521 kts | 103° |
| 2026-05-05 19:32 | 25.13976 | 45.11965 | 30227 ft | 519 kts | 103° |
| 2026-05-05 19:32 | 25.13412 | 45.15894 | 29992 ft | 517 kts | 103° |
| 2026-05-05 19:32 | 25.12843 | 45.19804 | 29754 ft | 515 kts | 103° |
| 2026-05-05 19:32 | 25.12267 | 45.23702 | 29485 ft | 513 kts | 103° |
| 2026-05-05 19:33 | 25.11695 | 45.27531 | 29200 ft | 510 kts | 103° |
| 2026-05-05 19:33 | 25.11119 | 45.31378 | 28795 ft | 505 kts | 103° |
| 2026-05-05 19:33 | 25.10543 | 45.35204 | 28103 ft | 503 kts | 103° |
| 2026-05-05 19:33 | 25.09973 | 45.38980 | 27410 ft | 501 kts | 103° |
| 2026-05-05 19:34 | 25.09400 | 45.42767 | 26725 ft | 498 kts | 103° |
| 2026-05-05 19:34 | 25.08830 | 45.46529 | 26005 ft | 497 kts | 103° |
| 2026-05-05 19:34 | 25.08264 | 45.50270 | 25471 ft | 490 kts | 102° |
| 2026-05-05 19:35 | 25.07153 | 45.57601 | 24452 ft | 477 kts | 102° |
| 2026-05-05 19:35 | 25.06606 | 45.61196 | 23944 ft | 471 kts | 102° |
| 2026-05-05 19:35 | 25.06065 | 45.64741 | 23426 ft | 465 kts | 102° |
| 2026-05-05 19:35 | 25.05496 | 45.68201 | 22816 ft | 459 kts | 105° |
| 2026-05-05 19:36 | 25.04799 | 45.71622 | 22177 ft | 454 kts | 106° |
| 2026-05-05 19:36 | 25.04077 | 45.74993 | 21543 ft | 449 kts | 106° |
| 2026-05-05 19:36 | 25.03361 | 45.78328 | 20949 ft | 444 kts | 106° |
| 2026-05-05 19:36 | 25.02656 | 45.81621 | 20346 ft | 439 kts | 106° |
| 2026-05-05 19:37 | 25.01958 | 45.84886 | 19745 ft | 434 kts | 106° |
| 2026-05-05 19:37 | 25.01271 | 45.88109 | 19170 ft | 429 kts | 106° |
| 2026-05-05 19:37 | 25.00587 | 45.91313 | 18595 ft | 425 kts | 107° |
| 2026-05-05 19:37 | 24.99651 | 45.94359 | 18014 ft | 415 kts | 118° |
| 2026-05-05 19:38 | 24.98382 | 45.97193 | 17341 ft | 410 kts | 121° |
| 2026-05-05 19:38 | 24.97106 | 45.99976 | 16766 ft | 404 kts | 120° |
| 2026-05-05 19:38 | 24.95934 | 46.02785 | 16123 ft | 402 kts | 117° |
| 2026-05-05 19:38 | 24.94900 | 46.05617 | 15638 ft | 395 kts | 114° |
| 2026-05-05 19:39 | 24.93976 | 46.08453 | 15005 ft | 392 kts | 112° |
| 2026-05-05 19:39 | 24.93126 | 46.11289 | 14419 ft | 388 kts | 111° |
| 2026-05-05 19:39 | 24.92322 | 46.14100 | 13835 ft | 383 kts | 110° |
| 2026-05-05 19:39 | 24.91539 | 46.16891 | 13215 ft | 379 kts | 110° |
| 2026-05-05 19:40 | 24.90763 | 46.19657 | 12491 ft | 377 kts | 109° |
| 2026-05-05 19:40 | 24.89994 | 46.22385 | 11815 ft | 374 kts | 109° |
| 2026-05-05 19:40 | 24.89220 | 46.25109 | 11255 ft | 367 kts | 109° |
| 2026-05-05 19:40 | 24.88473 | 46.27733 | 10807 ft | 349 kts | 109° |
| 2026-05-05 19:41 | 24.87765 | 46.30210 | 10345 ft | 328 kts | 109° |
| 2026-05-05 19:41 | 24.87096 | 46.32541 | 9945 ft | 310 kts | 109° |
| 2026-05-05 19:41 | 24.86456 | 46.34765 | 9187 ft | 308 kts | 109° |
| 2026-05-05 19:41 | 24.85792 | 46.37056 | 8466 ft | 310 kts | 109° |
| 2026-05-05 19:42 | 24.85148 | 46.39288 | 8183 ft | 302 kts | 110° |
| 2026-05-05 19:42 | 24.84517 | 46.41471 | 7727 ft | 302 kts | 110° |
| 2026-05-05 19:42 | 24.83879 | 46.43672 | 7346 ft | 300 kts | 110° |
| 2026-05-05 19:42 | 24.83248 | 46.45856 | 6942 ft | 299 kts | 110° |
| 2026-05-05 19:43 | 24.82629 | 46.48003 | 6712 ft | 290 kts | 110° |
| 2026-05-05 19:43 | 24.82018 | 46.50120 | 6316 ft | 290 kts | 110° |
| 2026-05-05 19:43 | 24.81450 | 46.52241 | 6022 ft | 287 kts | 106° |
| 2026-05-05 19:43 | 24.81157 | 46.54412 | 5777 ft | 287 kts | 96° |
| 2026-05-05 19:44 | 24.81088 | 46.56615 | 5591 ft | 287 kts | 92° |
| 2026-05-05 19:44 | 24.81084 | 46.58811 | 5404 ft | 285 kts | 93° |
| 2026-05-05 19:44 | 24.81095 | 46.60968 | 5234 ft | 285 kts | 92° |
| 2026-05-05 19:44 | 24.81112 | 46.63160 | 5056 ft | 286 kts | 93° |
| 2026-05-05 19:45 | 24.81131 | 46.65339 | 4887 ft | 283 kts | 92° |
| 2026-05-05 19:45 | 24.81152 | 46.67470 | 4744 ft | 273 kts | 92° |
| 2026-05-05 19:45 | 24.81171 | 46.69542 | 4594 ft | 266 kts | 92° |
| 2026-05-05 19:45 | 24.81191 | 46.71544 | 4426 ft | 258 kts | 93° |
| 2026-05-05 19:46 | 24.81209 | 46.73497 | 4267 ft | 252 kts | 92° |
| 2026-05-05 19:46 | 24.81226 | 46.75402 | 4101 ft | 245 kts | 93° |
| 2026-05-05 19:46 | 24.81440 | 46.77241 | 4000 ft | 242 kts | 68° |
| 2026-05-05 19:46 | 24.82509 | 46.78613 | 3855 ft | 237 kts | 28° |
| 2026-05-05 19:47 | 24.84067 | 46.78936 | 3757 ft | 228 kts | 347° |
| 2026-05-05 19:47 | 24.85455 | 46.78205 | 3556 ft | 220 kts | 320° |
| 2026-05-05 19:47 | 24.86677 | 46.77230 | 3522 ft | 216 kts | 323° |
| 2026-05-05 19:47 | 24.87915 | 46.76400 | 3528 ft | 200 kts | 326° |
| 2026-05-05 19:48 | 24.89102 | 46.75663 | 3301 ft | 193 kts | 326° |
| 2026-05-05 19:48 | 24.90233 | 46.74942 | 3045 ft | 182 kts | 326° |
| 2026-05-05 19:48 | 24.91281 | 46.74275 | 2837 ft | 165 kts | 327° |
| 2026-05-05 19:48 | 24.92221 | 46.73678 | 2649 ft | 148 kts | 324° |
| 2026-05-05 19:49 | 24.93099 | 46.73117 | 2483 ft | 146 kts | 331° |
| 2026-05-05 19:49 | 24.93687 | 46.72743 | 2325 ft | 147 kts | 330° |
| 2026-05-05 19:49 | 24.94825 | 46.72009 | 2048 ft | 124 kts | 329° |
| 2026-05-05 19:49 | 24.95243 | 46.71744 | 2047 ft | 43 kts | 324° |
| 2026-05-05 19:50 | 24.95448 | 46.71546 | 2041 ft | 37 kts | 302° |
| 2026-05-05 19:50 | 24.95484 | 46.71426 | 2041 ft | 12 kts | 271° |
| 2026-05-05 19:50 | 24.96050 | 46.69366 | 2034 ft | 0 kts | 59° |
| 2026-05-05 19:51 | 0.01035 | 0.00001 | 53808 ft | 0 kts | 0° |